Time;durP1;ratioP1;P1;durP2;ratioP2;P2;SDS_P1;SDS_P2;PMS_P1;PMS_P2;Temp;Humidity;BMP_temperature;BMP_pressure;BME280_temperature;BME280_humidity;BME280_pressure;Samples;Min_cycle;Max_cycle;Signal;HPM_P1;HPM_P2
2022/03/06 00:00:07;;;;;;;17.97;10.63;;;;;;;-0.23;100.00;99085.06;5013400;28;20046;-56
2022/03/06 00:02:33;;;;;;;21.47;11.87;;;;;;;-0.26;100.00;99088.34;5014885;28;20038;-57
2022/03/06 00:04:59;;;;;;;20.03;11.80;;;;;;;-0.26;100.00;99095.06;5009046;28;20054;-56
2022/03/06 00:07:24;;;;;;;19.20;10.93;;;;;;;-0.32;100.00;99085.63;5010432;28;20110;-55
2022/03/06 00:09:51;;;;;;;24.60;11.63;;;;;;;-0.42;100.00;99085.31;5015589;28;20128;-55
2022/03/06 00:12:17;;;;;;;22.63;13.00;;;;;;;-0.47;100.00;99088.50;5014556;28;20049;-56
2022/03/06 00:14:43;;;;;;;22.83;11.13;;;;;;;-0.51;100.00;99078.31;5009707;28;20045;-56
2022/03/06 00:17:08;;;;;;;20.33;11.23;;;;;;;-0.59;100.00;99073.03;5011400;28;20360;-57
2022/03/06 00:19:34;;;;;;;24.30;11.57;;;;;;;-0.57;100.00;99075.59;5014935;28;20046;-57
2022/03/06 00:21:59;;;;;;;22.13;11.60;;;;;;;-0.61;100.00;99079.69;5014606;28;20049;-56
2022/03/06 00:24:25;;;;;;;20.90;11.53;;;;;;;-0.69;100.00;99077.72;5010758;28;20042;-54
2022/03/06 00:26:50;;;;;;;24.80;11.30;;;;;;;-0.75;100.00;99070.81;5011836;28;20044;-55
2022/03/06 00:29:16;;;;;;;22.57;12.40;;;;;;;-0.72;100.00;99083.50;5015758;28;20712;-56
2022/03/06 00:31:41;;;;;;;23.03;11.83;;;;;;;-0.81;100.00;99082.38;5013633;28;20727;-51
2022/03/06 00:34:07;;;;;;;23.53;13.03;;;;;;;-0.89;100.00;99081.25;5010588;28;20046;-55
2022/03/06 00:36:33;;;;;;;25.30;12.47;;;;;;;-0.94;100.00;99079.44;5012242;28;20076;-57
2022/03/06 00:38:58;;;;;;;23.77;13.00;;;;;;;-1.00;100.00;99075.84;5014448;28;20041;-59
2022/03/06 00:41:24;;;;;;;22.73;11.07;;;;;;;-0.98;100.00;99079.28;5013082;28;20049;-56
2022/03/06 00:43:50;;;;;;;21.63;11.77;;;;;;;-1.04;100.00;99077.41;5009237;28;20095;-56
2022/03/06 00:46:15;;;;;;;17.80;10.80;;;;;;;-1.03;100.00;99075.75;5013671;28;20045;-57
2022/03/06 00:48:41;;;;;;;24.13;11.90;;;;;;;-1.10;100.00;99077.19;5013783;28;20038;-54
2022/03/06 00:51:06;;;;;;;24.27;12.63;;;;;;;-1.26;100.00;99054.84;5012529;28;20107;-56
2022/03/06 00:53:32;;;;;;;23.17;12.57;;;;;;;-1.19;100.00;99071.03;5009273;28;20501;-51
2022/03/06 00:55:57;;;;;;;21.80;11.57;;;;;;;-1.15;100.00;99070.31;5013986;28;20124;-57
2022/03/06 00:58:23;;;;;;;18.23;10.07;;;;;;;-1.08;100.00;99068.06;5014937;28;20045;-56
2022/03/06 01:00:49;;;;;;;19.40;10.57;;;;;;;-0.97;100.00;99064.22;5011600;28;20853;-56
2022/03/06 01:03:18;;;;;;;18.63;10.73;;;;;;;-0.93;100.00;99066.03;5012908;28;20085;-56
2022/03/06 01:05:44;;;;;;;18.57;9.93;;;;;;;-1.06;100.00;99063.91;5015661;28;20498;-56
2022/03/06 01:08:10;;;;;;;23.20;11.00;;;;;;;-1.24;100.00;99060.81;5016614;28;20124;-57
2022/03/06 01:10:38;;;;;;;19.27;10.43;;;;;;;-1.41;100.00;99056.84;5010416;28;20050;-57
2022/03/06 01:13:05;;;;;;;17.17;10.07;;;;;;;-1.41;100.00;99057.72;5010699;28;20052;-56
2022/03/06 01:15:31;;;;;;;25.17;10.00;;;;;;;-1.45;100.00;99067.59;5012892;28;20045;-54
2022/03/06 01:17:56;;;;;;;20.83;10.67;;;;;;;-1.46;100.00;99065.88;5028468;28;20144;-55
2022/03/06 01:20:23;;;;;;;22.00;11.27;;;;;;;-1.41;100.00;99074.44;5008797;28;20040;-53
2022/03/06 01:22:49;;;;;;;20.47;10.47;;;;;;;-1.31;100.00;99066.41;5008182;28;20074;-57
2022/03/06 01:25:15;;;;;;;20.10;10.63;;;;;;;-1.31;100.00;99065.53;5013708;28;20449;-54
2022/03/06 01:27:40;;;;;;;18.93;10.07;;;;;;;-1.31;100.00;99065.53;5014437;28;20125;-53
2022/03/06 01:30:08;;;;;;;23.43;9.20;;;;;;;-1.34;100.00;99066.31;5012634;28;20414;-55
2022/03/06 01:32:34;;;;;;;22.47;10.33;;;;;;;-1.50;100.00;99059.03;5014174;28;20034;-56
2022/03/06 01:35:00;;;;;;;18.07;9.30;;;;;;;-1.65;100.00;99048.44;5016606;28;20045;-55
2022/03/06 01:37:25;;;;;;;16.00;9.37;;;;;;;-1.68;100.00;99056.72;5018021;28;20045;-56
2022/03/06 01:39:51;;;;;;;24.83;9.97;;;;;;;-1.71;100.00;99053.25;5012162;28;20388;-58
2022/03/06 01:42:17;;;;;;;20.10;9.43;;;;;;;-1.66;100.00;99060.16;5012869;28;20119;-57
2022/03/06 01:44:50;;;;;;;21.93;10.63;;;;;;;-1.71;100.00;99053.25;5013751;28;20041;-57
2022/03/06 01:47:34;;;;;;;19.63;9.60;;;;;;;-1.66;100.00;99056.78;5013743;28;20141;-57
2022/03/06 01:50:00;;;;;;;18.17;9.10;;;;;;;-1.75;100.00;99048.91;5010422;28;20105;-58
2022/03/06 01:52:25;;;;;;;16.07;9.37;;;;;;;-1.65;100.00;99043.41;5010444;28;20116;-57
2022/03/06 01:54:50;;;;;;;20.33;10.10;;;;;;;-1.60;100.00;99046.94;5014307;28;20042;-53
2022/03/06 01:57:16;;;;;;;20.63;10.17;;;;;;;-1.65;100.00;99049.28;5011767;28;20625;-56
2022/03/06 01:59:41;;;;;;;19.83;10.87;;;;;;;-1.67;100.00;99052.56;5011739;28;20048;-55
2022/03/06 02:02:07;;;;;;;23.57;9.43;;;;;;;-1.69;100.00;99042.44;5012403;28;20049;-57
2022/03/06 02:04:33;;;;;;;21.43;10.43;;;;;;;-1.66;100.00;99042.56;5013204;28;20033;-55
2022/03/06 02:06:59;;;;;;;19.77;10.63;;;;;;;-1.78;100.00;99046.31;5012166;28;20060;-56
2022/03/06 02:09:25;;;;;;;20.90;10.10;;;;;;;-1.79;100.00;99049.59;5012320;28;20040;-56
2022/03/06 02:14:35;;;;;;;20.37;10.47;;;;;;;-1.87;100.00;99041.81;5015034;28;20040;-56
2022/03/06 02:17:01;;;;;;;16.60;9.83;;;;;;;-1.80;100.00;99045.38;5011931;28;20045;-56
2022/03/06 02:19:26;;;;;;;17.43;10.47;;;;;;;-1.87;100.00;99042.63;5013071;28;20471;-57
2022/03/06 02:21:52;;;;;;;16.17;9.80;;;;;;;-1.97;100.00;99053.16;5015544;28;20053;-56
2022/03/06 02:24:17;;;;;;;21.23;10.83;;;;;;;-2.03;100.00;99049.56;5015584;28;20062;-57
2022/03/06 02:26:42;;;;;;;19.87;11.00;;;;;;;-2.08;100.00;99054.41;5011600;28;20050;-57
2022/03/06 02:29:08;;;;;;;23.87;9.77;;;;;;;-2.06;100.00;99062.00;5013521;28;20033;-57
2022/03/06 02:31:35;;;;;;;18.37;9.70;;;;;;;-2.10;100.00;99067.72;5015424;28;20042;-57
2022/03/06 02:34:01;;;;;;;26.07;11.10;;;;;;;-2.18;100.00;99057.38;5014708;28;20095;-57
2022/03/06 02:36:27;;;;;;;16.77;9.20;;;;;;;-2.15;100.00;99054.97;5013746;28;20053;-57
2022/03/06 02:38:52;;;;;;;19.77;10.17;;;;;;;-1.99;100.00;99054.75;5012877;28;20041;-58
2022/03/06 02:41:18;;;;;;;22.03;9.00;;;;;;;-1.87;100.00;99049.34;5017365;28;20497;-58
2022/03/06 02:43:43;;;;;;;22.83;9.10;;;;;;;-1.90;100.00;99047.56;5018350;28;20056;-58
2022/03/06 02:46:09;;;;;;;20.37;9.90;;;;;;;-1.92;100.00;99053.34;5020093;28;20064;-57
2022/03/06 02:48:34;;;;;;;18.33;9.90;;;;;;;-1.88;100.00;99056.03;5015693;28;20491;-58
2022/03/06 02:51:00;;;;;;;17.60;9.70;;;;;;;-1.95;100.00;99055.72;5014833;28;20056;-57
2022/03/06 02:53:25;;;;;;;20.70;10.10;;;;;;;-2.01;100.00;99053.00;5014907;28;20037;-58
2022/03/06 02:55:51;;;;;;;16.80;9.27;;;;;;;-1.97;100.00;99042.25;5012790;28;20050;-57
2022/03/06 02:58:16;;;;;;;22.30;9.90;;;;;;;-1.87;100.00;99049.34;5014416;28;20037;-55
2022/03/06 03:00:42;;;;;;;19.30;9.00;;;;;;;-1.87;100.00;99051.84;5017701;28;20399;-55
2022/03/06 03:03:07;;;;;;;20.53;9.53;;;;;;;-2.01;100.00;99056.38;5015320;28;20038;-60
2022/03/06 03:05:33;;;;;;;22.00;10.23;;;;;;;-1.90;100.00;99057.59;5013688;28;20486;-58
2022/03/06 03:07:58;;;;;;;17.90;8.97;;;;;;;-1.86;100.00;99058.56;5013997;28;20065;-55
2022/03/06 03:10:25;;;;;;;21.20;10.97;;;;;;;-2.02;100.00;99047.09;5018184;28;20044;-58
2022/03/06 03:12:51;;;;;;;17.83;9.50;;;;;;;-2.10;100.00;99058.53;5013796;28;20064;-57
2022/03/06 03:15:17;;;;;;;20.03;10.13;;;;;;;-2.16;100.00;99062.44;5014082;28;20050;-57
2022/03/06 03:17:43;;;;;;;15.47;8.70;;;;;;;-2.22;100.00;99054.69;5017503;28;20153;-57
2022/03/06 03:20:10;;;;;;;19.43;9.10;;;;;;;-2.22;100.00;99057.22;5013566;28;20268;-57
2022/03/06 03:22:36;;;;;;;15.97;9.90;;;;;;;-2.25;100.00;99057.97;5014180;28;20056;-57
2022/03/06 03:25:03;;;;;;;20.47;10.17;;;;;;;-2.28;100.00;99062.00;5012461;28;20404;-56
2022/03/06 03:27:28;;;;;;;20.17;9.80;;;;;;;-2.25;100.00;99057.97;5019540;28;20107;-57
2022/03/06 03:29:53;;;;;;;18.83;8.87;;;;;;;-2.20;100.00;99056.47;5016073;28;20041;-58
2022/03/06 03:32:19;;;;;;;16.77;10.23;;;;;;;-2.14;100.00;99053.34;5015093;28;20041;-58
2022/03/06 03:34:44;;;;;;;22.07;9.47;;;;;;;-2.19;100.00;99054.81;5012065;28;20136;-58
2022/03/06 03:37:10;;;;;;;23.47;9.83;;;;;;;-2.15;100.00;99060.00;5014368;28;20155;-57
2022/03/06 03:39:35;;;;;;;18.97;9.33;;;;;;;-2.10;100.00;99057.66;5013244;28;20045;-57
2022/03/06 03:42:01;;;;;;;20.87;9.37;;;;;;;-2.21;100.00;99054.78;5011499;28;20085;-54
2022/03/06 03:44:26;;;;;;;17.40;9.70;;;;;;;-2.09;100.00;99061.91;5011123;28;20888;-54
2022/03/06 03:46:51;;;;;;;19.23;9.80;;;;;;;-2.03;100.00;99068.00;5013736;28;20057;-56
2022/03/06 03:49:17;;;;;;;19.30;9.97;;;;;;;-2.06;100.00;99062.88;5014779;28;20042;-58
2022/03/06 03:51:43;;;;;;;19.00;10.53;;;;;;;-2.10;100.00;99067.72;5011201;28;20049;-57
2022/03/06 03:54:09;;;;;;;17.33;9.53;;;;;;;-2.12;100.00;99059.28;5014703;28;20034;-57
2022/03/06 03:56:35;;;;;;;21.27;10.20;;;;;;;-2.20;100.00;99053.94;5016743;28;20084;-57
2022/03/06 03:59:00;;;;;;;21.33;10.10;;;;;;;-2.17;100.00;99065.78;5018439;28;20639;-58
2022/03/06 04:01:26;;;;;;;19.03;9.33;;;;;;;-2.17;100.00;99064.13;5014352;28;20050;-58
2022/03/06 04:03:51;;;;;;;18.73;10.47;;;;;;;-2.13;100.00;99067.59;5015059;28;20061;-54
2022/03/06 04:06:17;;;;;;;19.40;10.00;;;;;;;-2.12;100.00;99071.84;5014838;28;20625;-56
2022/03/06 04:08:42;;;;;;;19.57;9.27;;;;;;;-2.11;100.00;99076.91;5013741;28;20039;-58
2022/03/06 04:11:08;;;;;;;17.67;8.77;;;;;;;-2.23;100.00;99075.56;5013503;28;20084;-58
2022/03/06 04:13:34;;;;;;;24.07;11.33;;;;;;;-2.25;100.00;99075.53;5015457;28;20042;-52
2022/03/06 04:15:59;;;;;;;21.63;9.97;;;;;;;-2.26;100.00;99075.47;5017505;28;20092;-53
2022/03/06 04:18:24;;;;;;;19.90;9.73;;;;;;;-2.22;100.00;99078.16;5014790;28;20089;-55
2022/03/06 04:20:50;;;;;;;18.57;9.43;;;;;;;-2.20;100.00;99081.56;5010506;28;20092;-55
2022/03/06 04:23:16;;;;;;;20.73;10.20;;;;;;;-2.13;100.00;99082.69;5011897;28;20052;-56
2022/03/06 04:25:41;;;;;;;17.83;9.17;;;;;;;-2.11;100.00;99074.38;5016405;28;20053;-55
2022/03/06 04:28:07;;;;;;;17.53;9.00;;;;;;;-2.18;100.00;99085.00;5011624;28;20049;-57
2022/03/06 04:30:33;;;;;;;16.93;9.87;;;;;;;-2.12;100.00;99082.72;5010902;28;20053;-56
2022/03/06 04:32:58;;;;;;;19.80;10.30;;;;;;;-2.09;100.00;99076.97;5016227;28;20412;-52
2022/03/06 04:35:24;;;;;;;23.53;10.53;;;;;;;-2.11;100.00;99081.91;5013397;28;20053;-57
2022/03/06 04:37:50;;;;;;;17.40;9.43;;;;;;;-2.07;100.00;99076.22;5011420;28;20133;-54
2022/03/06 04:40:15;;;;;;;18.17;9.70;;;;;;;-2.05;100.00;99087.19;5012899;28;20045;-57
2022/03/06 04:42:41;;;;;;;21.10;9.43;;;;;;;-2.17;100.00;99080.84;5013388;28;20672;-57
2022/03/06 04:45:07;;;;;;;23.93;10.37;;;;;;;-2.26;100.00;99090.53;5015140;28;20053;-57
2022/03/06 04:47:33;;;;;;;19.67;10.20;;;;;;;-2.29;100.00;99093.75;5012199;28;20052;-56
2022/03/06 04:49:59;;;;;;;20.33;9.37;;;;;;;-2.12;100.00;99087.75;5014611;28;20037;-57
2022/03/06 04:52:24;;;;;;;19.63;9.07;;;;;;;-2.14;100.00;99091.00;5011669;28;20046;-55
2022/03/06 04:54:50;;;;;;;17.53;9.13;;;;;;;-2.18;100.00;99091.69;5013874;28;20038;-56
2022/03/06 04:57:15;;;;;;;19.83;9.73;;;;;;;-2.24;100.00;99089.78;5012213;28;20466;-56
2022/03/06 04:59:41;;;;;;;19.17;9.73;;;;;;;-2.30;100.00;99087.06;5014576;28;20041;-56
2022/03/06 05:02:06;;;;;;;21.03;9.20;;;;;;;-2.26;100.00;99093.91;5012231;28;20085;-54
2022/03/06 05:04:32;;;;;;;18.00;9.00;;;;;;;-2.23;100.00;99090.66;5014054;28;20172;-55
2022/03/06 05:06:57;;;;;;;18.20;8.40;;;;;;;-2.33;100.00;99086.91;5014101;28;20479;-57
2022/03/06 05:09:23;;;;;;;18.87;10.20;;;;;;;-2.36;100.00;99097.72;5011917;28;20656;-56
2022/03/06 05:11:48;;;;;;;19.83;8.47;;;;;;;-2.47;100.00;99085.53;5010093;28;20068;-54
2022/03/06 05:14:13;;;;;;;17.40;8.97;;;;;;;-2.60;100.00;99080.84;5012066;28;20042;-57
2022/03/06 05:16:39;;;;;;;16.60;9.63;;;;;;;-2.58;100.00;99086.75;5012819;28;20479;-56
2022/03/06 05:19:04;;;;;;;17.87;8.53;;;;;;;-2.65;100.00;99093.19;5011585;28;20052;-55
2022/03/06 05:21:30;;;;;;;20.90;8.97;;;;;;;-2.63;100.00;99100.78;5011858;28;20086;-58
2022/03/06 05:23:55;;;;;;;20.03;10.07;;;;;;;-2.64;100.00;99099.94;5012225;28;20522;-56
2022/03/06 05:26:20;;;;;;;21.03;9.87;;;;;;;-2.67;100.00;99098.97;5011542;28;20049;-54
2022/03/06 05:28:46;;;;;;;17.80;8.97;;;;;;;-2.65;100.00;99099.84;5011216;28;20480;-56
2022/03/06 05:31:11;;;;;;;19.37;9.97;;;;;;;-2.65;100.00;99104.88;5015504;28;20080;-56
2022/03/06 05:33:37;;;;;;;17.33;9.47;;;;;;;-2.65;100.00;99099.84;5016300;28;20408;-58
2022/03/06 05:36:03;;;;;;;18.77;9.30;;;;;;;-2.63;100.00;99099.09;5009197;28;20037;-57
2022/03/06 05:38:28;;;;;;;19.80;9.70;;;;;;;-2.61;100.00;99101.69;5010538;28;20631;-54
2022/03/06 05:40:54;;;;;;;16.83;8.93;;;;;;;-2.58;100.00;99102.66;5014773;28;20076;-56
2022/03/06 05:43:19;;;;;;;24.67;10.00;;;;;;;-2.54;100.00;99093.59;5013111;28;20084;-58
2022/03/06 05:45:50;;;;;;;16.97;9.83;;;;;;;-2.38;100.00;99104.31;5008679;28;20057;-54
2022/03/06 05:48:16;;;;;;;14.00;9.33;;;;;;;-2.15;100.00;99107.72;5011949;28;20037;-54
2022/03/06 05:50:41;;;;;;;18.67;9.40;;;;;;;-2.04;100.00;99106.50;5014624;28;20042;-56
2022/03/06 05:53:09;;;;;;;22.67;9.47;;;;;;;-2.03;100.00;99108.19;5012891;28;20045;-57
2022/03/06 05:55:35;;;;;;;17.87;9.70;;;;;;;-2.09;100.00;99102.09;5012040;28;20037;-57
2022/03/06 05:58:00;;;;;;;19.43;9.63;;;;;;;-2.09;100.00;99099.56;5014629;28;20033;-57
2022/03/06 06:00:26;;;;;;;16.47;9.33;;;;;;;-2.00;100.00;99105.81;5015712;28;20045;-56
2022/03/06 06:02:51;;;;;;;18.83;10.00;;;;;;;-1.92;100.00;99101.94;5012798;28;20507;-61
2022/03/06 06:05:16;;;;;;;19.70;10.37;;;;;;;-1.97;100.00;99089.97;5011687;28;20041;-59
2022/03/06 06:07:42;;;;;;;15.67;9.20;;;;;;;-1.77;100.00;99098.25;5013161;28;20030;-57
2022/03/06 06:10:08;;;;;;;14.37;8.87;;;;;;;-1.78;100.00;99097.38;5014448;28;20041;-58
2022/03/06 06:12:34;;;;;;;19.37;9.60;;;;;;;-1.80;100.00;99099.00;5013396;28;20466;-58
2022/03/06 06:14:59;;;;;;;17.90;10.33;;;;;;;-1.74;100.00;99095.88;5015082;28;20049;-58
2022/03/06 06:17:25;;;;;;;18.67;9.37;;;;;;;-1.74;100.00;99098.38;5014631;28;20044;-58
2022/03/06 06:19:50;;;;;;;24.90;10.67;;;;;;;-1.70;100.00;99092.66;5016078;28;20042;-58
2022/03/06 06:22:16;;;;;;;25.17;11.83;;;;;;;-1.62;100.00;99101.34;5004342;28;20053;-58
2022/03/06 06:24:41;;;;;;;17.60;9.23;;;;;;;-1.66;100.00;99099.50;5012689;28;20152;-58
2022/03/06 06:27:07;;;;;;;19.53;10.10;;;;;;;-1.63;100.00;99100.47;5018961;28;20115;-58
2022/03/06 06:29:32;;;;;;;19.00;9.63;;;;;;;-1.60;100.00;99094.69;5016966;28;20096;-55
2022/03/06 06:31:58;;;;;;;16.83;9.63;;;;;;;-1.59;100.00;99092.25;5014815;28;20474;-56
2022/03/06 06:34:24;;;;;;;20.07;11.27;;;;;;;-1.52;100.00;99096.69;5016879;28;20030;-56
2022/03/06 06:36:49;;;;;;;18.43;9.67;;;;;;;-1.51;100.00;99100.06;5021702;28;20416;-54
2022/03/06 06:39:15;;;;;;;18.27;9.67;;;;;;;-1.54;100.00;99108.34;5020486;28;20037;-58
2022/03/06 06:41:42;;;;;;;18.60;10.23;;;;;;;-1.51;100.00;99112.63;5015781;28;20057;-58
2022/03/06 06:44:09;;;;;;;16.43;9.90;;;;;;;-1.49;100.00;99111.03;5018650;28;20148;-58
2022/03/06 06:46:35;;;;;;;19.37;9.80;;;;;;;-1.46;100.00;99118.69;5022664;28;20072;-58
2022/03/06 06:49:03;;;;;;;15.97;9.17;;;;;;;-1.47;100.00;99122.00;5019199;28;20121;-59
2022/03/06 06:51:29;;;;;;;23.93;13.57;;;;;;;-1.46;100.00;99114.50;5016000;28;20259;-59
2022/03/06 06:53:54;;;;;;;37.53;22.27;;;;;;;-1.36;100.00;99119.88;5017519;28;20113;-59
2022/03/06 06:56:20;;;;;;;24.00;12.50;;;;;;;-1.28;100.00;99126.03;5018850;28;20041;-57
2022/03/06 06:58:45;;;;;;;23.53;11.80;;;;;;;-1.20;100.00;99125.50;5018177;28;20030;-57
2022/03/06 07:01:11;;;;;;;19.37;10.83;;;;;;;-1.01;100.00;99122.81;5014442;28;20545;-56
2022/03/06 07:03:37;;;;;;;19.03;10.03;;;;;;;-0.77;100.00;99126.97;5011947;28;20076;-57
2022/03/06 07:06:02;;;;;;;19.60;10.13;;;;;;;-0.70;99.74;99122.19;5017735;28;20832;-57
2022/03/06 07:08:28;;;;;;;19.60;10.20;;;;;;;-0.57;96.64;99120.91;5018796;28;20708;-58
2022/03/06 07:10:53;;;;;;;22.63;10.83;;;;;;;-0.52;94.40;99124.44;5017518;28;20049;-55
2022/03/06 07:13:18;;;;;;;23.13;10.83;;;;;;;-0.32;91.20;99115.84;5019081;28;20467;-57
2022/03/06 07:15:44;;;;;;;19.20;11.00;;;;;;;-0.14;89.00;99126.53;5017853;28;20105;-57
2022/03/06 07:18:09;;;;;;;20.73;11.63;;;;;;;0.12;85.06;99127.31;5017058;28;20463;-58
2022/03/06 07:20:35;;;;;;;19.30;10.20;;;;;;;0.16;81.72;99128.25;5013556;28;20037;-58
2022/03/06 07:23:00;;;;;;;17.43;10.97;;;;;;;0.24;78.88;99127.69;5014456;28;20030;-55
2022/03/06 07:25:26;;;;;;;20.07;10.17;;;;;;;0.28;78.96;99121.06;5015498;28;20049;-55
2022/03/06 07:27:52;;;;;;;18.63;10.27;;;;;;;0.54;77.94;99127.72;5017629;28;20049;-58
2022/03/06 07:30:17;;;;;;;56.27;50.97;;;;;;;0.63;74.97;99125.44;5013979;28;20038;-53
2022/03/06 07:32:44;;;;;;;36.80;33.20;;;;;;;0.73;72.05;99129.91;5012812;28;20037;-58
2022/03/06 07:35:11;;;;;;;52.83;27.27;;;;;;;0.87;69.23;99123.59;5015029;28;20056;-55
2022/03/06 07:37:36;;;;;;;23.97;15.97;;;;;;;0.99;66.66;99117.16;5013205;28;20043;-57
2022/03/06 07:40:03;;;;;;;143.00;96.83;;;;;;;1.18;65.80;99127.78;5011226;28;20046;-56
2022/03/06 07:42:28;;;;;;;171.63;113.10;;;;;;;1.41;65.00;99117.41;5012303;28;20061;-56
2022/03/06 07:44:53;;;;;;;189.13;114.93;;;;;;;1.60;64.78;99122.09;5015246;28;20837;-57
2022/03/06 07:47:20;;;;;;;221.53;124.97;;;;;;;1.69;62.36;99124.84;5014004;28;20037;-57
2022/03/06 07:49:45;;;;;;;199.07;117.97;;;;;;;1.69;60.90;99119.78;5011851;28;20038;-57
2022/03/06 07:52:11;;;;;;;184.40;112.70;;;;;;;1.73;59.57;99127.50;5012852;28;20038;-57
2022/03/06 07:54:36;;;;;;;183.83;118.43;;;;;;;1.74;60.00;99123.28;5016182;28;20095;-58
2022/03/06 07:57:02;;;;;;;177.77;118.57;;;;;;;1.80;59.70;99119.22;5011833;28;20038;-58
2022/03/06 07:59:28;;;;;;;159.43;119.83;;;;;;;1.81;58.26;99120.94;5010882;28;20581;-58
2022/03/06 08:01:54;;;;;;;139.50;110.87;;;;;;;2.03;57.80;99122.28;5013381;28;20041;-57
2022/03/06 08:04:19;;;;;;;98.83;74.47;;;;;;;2.13;56.79;99120.78;5014872;28;20046;-57
2022/03/06 08:06:46;;;;;;;107.67;96.33;;;;;;;2.01;56.46;99113.78;5012855;28;20041;-59
2022/03/06 08:09:12;;;;;;;143.53;112.67;;;;;;;2.08;57.08;99112.28;5011717;28;20163;-57
2022/03/06 08:11:37;;;;;;;13.37;8.60;;;;;;;2.27;56.43;99114.38;5015305;28;20046;-57
2022/03/06 08:14:06;;;;;;;14.97;9.53;;;;;;;2.38;56.43;99112.09;5015234;28;20048;-58
2022/03/06 08:16:32;;;;;;;16.20;9.20;;;;;;;2.38;56.16;99109.56;5010156;28;20037;-57
2022/03/06 08:18:57;;;;;;;12.97;8.70;;;;;;;2.30;56.97;99110.22;5011137;28;20060;-58
2022/03/06 08:21:22;;;;;;;13.33;8.50;;;;;;;2.58;57.06;99105.75;5016076;28;20037;-57
2022/03/06 08:23:49;;;;;;;15.50;9.00;;;;;;;2.42;55.45;99096.16;5017971;28;20041;-56
2022/03/06 08:26:15;;;;;;;17.23;9.13;;;;;;;2.54;55.68;99101.44;5014396;28;20041;-57
2022/03/06 08:28:40;;;;;;;33.43;14.87;;;;;;;2.49;55.10;99108.09;5017309;28;20040;-57
2022/03/06 08:31:06;;;;;;;35.90;15.53;;;;;;;2.53;54.71;99104.78;5017254;28;20046;-58
2022/03/06 08:33:31;;;;;;;32.63;15.50;;;;;;;2.56;55.41;99105.72;5014350;28;20483;-58
2022/03/06 08:35:57;;;;;;;18.77;10.97;;;;;;;2.70;55.66;99098.41;5011954;28;20480;-58
2022/03/06 08:38:22;;;;;;;17.27;9.57;;;;;;;2.80;54.73;99095.19;5011154;28;20030;-58
2022/03/06 08:40:48;;;;;;;18.70;11.47;;;;;;;2.89;54.71;99080.19;5015109;28;20046;-58
2022/03/06 08:43:13;;;;;;;20.03;9.97;;;;;;;2.87;54.49;99096.19;5015126;28;20042;-57
2022/03/06 08:45:39;;;;;;;17.23;9.97;;;;;;;2.85;54.41;99092.75;5009907;28;20043;-58
2022/03/06 08:48:04;;;;;;;17.37;9.87;;;;;;;2.73;54.37;99095.91;5011015;28;20033;-57
2022/03/06 08:50:30;;;;;;;19.33;9.33;;;;;;;2.64;55.18;99088.13;5015441;28;20029;-57
2022/03/06 08:52:55;;;;;;;19.47;11.57;;;;;;;2.78;55.37;99089.28;5014462;28;20631;-57
2022/03/06 08:55:21;;;;;;;18.47;11.23;;;;;;;2.78;55.34;99083.34;5011947;28;20101;-57
2022/03/06 08:57:46;;;;;;;15.93;9.43;;;;;;;2.81;54.13;99091.84;5011369;28;20038;-58
2022/03/06 09:00:12;;;;;;;17.40;9.43;;;;;;;2.99;54.54;99088.81;5012517;28;20049;-57
2022/03/06 09:02:38;;;;;;;17.63;10.37;;;;;;;2.99;53.73;99084.59;5011708;28;20131;-56
2022/03/06 09:05:03;;;;;;;23.03;11.63;;;;;;;3.07;54.90;99079.66;5009453;28;20567;-58
2022/03/06 09:07:29;;;;;;;15.00;9.53;;;;;;;3.16;54.69;99073.09;5010839;28;20491;-58
2022/03/06 09:09:54;;;;;;;22.77;10.17;;;;;;;3.28;53.57;99077.50;5012507;28;20034;-59
2022/03/06 09:12:21;;;;;;;15.47;8.87;;;;;;;3.40;52.94;99080.25;5016244;28;20128;-59
2022/03/06 09:14:46;;;;;;;13.37;8.73;;;;;;;3.96;54.12;99072.66;5011458;28;20038;-58
2022/03/06 09:17:12;;;;;;;15.37;10.10;;;;;;;4.22;52.10;99075.56;5010175;28;20365;-58
2022/03/06 09:19:37;;;;;;;15.80;9.47;;;;;;;4.66;52.59;99065.97;5011980;28;20065;-58
2022/03/06 09:22:03;;;;;;;19.73;12.13;;;;;;;4.15;51.12;99074.63;5011256;28;20045;-56
2022/03/06 09:24:28;;;;;;;16.13;10.40;;;;;;;4.30;50.75;99068.91;5011518;28;20100;-58
2022/03/06 09:26:54;;;;;;;21.10;11.83;;;;;;;4.51;49.62;99059.88;5009895;28;20053;-57
2022/03/06 09:29:19;;;;;;;14.50;9.87;;;;;;;4.60;48.87;99062.50;5014373;28;20050;-59
2022/03/06 09:31:45;;;;;;;17.13;9.97;;;;;;;5.04;48.42;99063.00;5008560;28;20124;-57
2022/03/06 09:34:11;;;;;;;17.23;10.43;;;;;;;5.16;47.98;99057.16;5009462;28;20050;-58
2022/03/06 09:36:36;;;;;;;17.63;11.03;;;;;;;5.21;47.27;99047.06;5012082;28;20041;-57
2022/03/06 09:39:04;;;;;;;20.30;10.47;;;;;;;5.28;47.16;99046.25;5015299;28;20038;-55
2022/03/06 09:41:29;;;;;;;17.93;10.73;;;;;;;4.99;48.02;99043.44;5009831;28;20120;-58
2022/03/06 09:43:56;;;;;;;19.43;10.80;;;;;;;4.46;48.85;99053.88;5007183;28;20048;-58
2022/03/06 09:46:23;;;;;;;18.10;11.67;;;;;;;4.47;50.06;99053.03;5010707;28;20088;-59
2022/03/06 09:48:50;;;;;;;19.03;10.57;;;;;;;4.49;49.03;99046.31;5019619;28;20049;-58
2022/03/06 09:51:15;;;;;;;16.40;10.63;;;;;;;4.57;48.89;99052.34;5014837;28;20052;-58
2022/03/06 09:53:41;;;;;;;20.07;11.47;;;;;;;4.87;49.07;99041.66;5012918;28;20070;-58
2022/03/06 09:56:06;;;;;;;20.83;11.83;;;;;;;4.85;48.69;99047.53;5018450;28;20154;-60
2022/03/06 09:58:32;;;;;;;16.20;10.37;;;;;;;4.82;48.09;99044.97;5016196;28;20038;-58
2022/03/06 10:00:57;;;;;;;17.83;10.23;;;;;;;4.92;48.44;99047.59;5014960;28;20042;-60
2022/03/06 10:03:24;;;;;;;18.13;11.47;;;;;;;4.81;47.29;99044.13;5015101;28;20041;-60
2022/03/06 10:05:51;;;;;;;17.63;10.53;;;;;;;4.46;47.26;99040.31;5017905;28;20121;-58
2022/03/06 10:08:26;;;;;;;17.60;9.90;;;;;;;4.13;48.43;99051.78;5018658;28;20096;-60
2022/03/06 10:10:57;;;;;;;17.60;10.47;;;;;;;4.22;48.49;99047.66;5016605;28;20099;-58
2022/03/06 10:13:23;;;;;;;18.10;10.37;;;;;;;4.20;48.39;99049.31;5017841;28;20380;-58
2022/03/06 10:16:09;;;;;;;27.97;25.27;;;;;;;4.10;48.52;99046.66;5018639;28;20049;-57
2022/03/06 10:18:37;;;;;;;14.47;9.47;;;;;;;4.25;47.77;99056.16;5016843;28;20049;-57
2022/03/06 10:21:16;;;;;;;16.07;10.40;;;;;;;4.09;47.77;99050.03;5013209;28;20057;-58
2022/03/06 10:23:43;;;;;;;18.27;9.73;;;;;;;3.80;48.56;99041.16;5024838;28;20048;-58
2022/03/06 10:26:10;;;;;;;18.03;10.33;;;;;;;3.85;48.77;99048.84;5017404;28;20048;-58
2022/03/06 10:28:47;;;;;;;18.80;10.77;;;;;;;3.91;49.77;99043.84;5014874;28;20064;-58
2022/03/06 10:31:14;;;;;;;15.70;9.93;;;;;;;3.91;49.30;99048.91;5014318;28;20041;-55
2022/03/06 10:33:40;;;;;;;12.20;8.20;;;;;;;3.99;47.63;99039.72;5019778;28;20070;-58
2022/03/06 10:36:12;;;;;;;61.00;56.33;;;;;;;3.69;47.98;99043.53;5018352;28;20042;-58
2022/03/06 10:38:37;;;;;;;20.93;11.90;;;;;;;3.58;49.20;99049.28;5014039;28;20634;-59
2022/03/06 10:41:15;;;;;;;12.57;10.07;;;;;;;3.39;49.50;99043.09;5015139;28;20034;-60
2022/03/06 10:43:41;;;;;;;20.40;10.87;;;;;;;3.29;50.05;99051.34;5022359;28;20152;-57
2022/03/06 10:46:13;;;;;;;17.47;10.90;;;;;;;3.18;50.58;99048.63;5014680;28;20051;-57
2022/03/06 10:48:40;;;;;;;18.97;11.97;;;;;;;3.32;50.09;99045.47;5011552;28;20049;-55
2022/03/06 10:51:10;;;;;;;20.03;11.73;;;;;;;3.46;49.92;99046.56;5015287;28;20043;-57
2022/03/06 10:53:36;;;;;;;20.50;11.17;;;;;;;3.47;49.97;99046.59;5017968;28;20569;-57
2022/03/06 10:56:13;;;;;;;19.70;11.50;;;;;;;3.61;49.37;99044.25;5018768;28;20045;-58
2022/03/06 10:58:41;;;;;;;19.60;12.33;;;;;;;3.82;48.69;99039.50;5013715;28;20454;-57
2022/03/06 11:01:06;;;;;;;16.37;11.17;;;;;;;4.06;48.03;99034.78;5015641;28;20049;-54
2022/03/06 11:03:35;;;;;;;13.50;8.40;;;;;;;4.28;48.17;99032.50;5017045;28;20392;-57
2022/03/06 11:06:04;;;;;;;17.47;9.40;;;;;;;4.01;48.13;99036.38;5016793;28;20049;-55
2022/03/06 11:08:30;;;;;;;15.93;10.37;;;;;;;4.03;48.13;99038.97;5014767;28;20041;-57
2022/03/06 11:10:56;;;;;;;16.00;8.97;;;;;;;4.17;47.42;99016.28;5016630;28;20044;-56
2022/03/06 11:13:23;;;;;;;17.93;9.83;;;;;;;4.35;46.96;99019.91;5019393;28;20025;-54